Time;durP1;ratioP1;P1;durP2;ratioP2;P2;SDS_P1;SDS_P2;PMS_P1;PMS_P2;Temp;Humidity;BMP_temperature;BMP_pressure;BME280_temperature;BME280_humidity;BME280_pressure;Samples;Min_cycle;Max_cycle;Signal;HPM_P1;HPM_P2
2022/07/08 00:02:17;;;;;;;;;;;;;;;16.89;74.03;95177.44;5158738;27;1019;-48
2022/07/08 00:04:43;;;;;;;;;;;;;;;16.64;74.37;95175.19;5159095;27;1052;-48
2022/07/08 00:07:09;;;;;;;;;;;;;;;16.77;74.36;95177.13;5158982;27;1015;-47
2022/07/08 00:09:35;;;;;;;;;;;;;;;16.73;74.75;95176.69;5159112;27;1024;-47
2022/07/08 00:12:01;;;;;;;;;;;;;;;16.70;74.82;95184.34;5158691;27;1905;-47
2022/07/08 00:14:27;;;;;;;;;;;;;;;16.76;74.53;95181.66;5158928;27;1050;-47
2022/07/08 00:16:53;;;;;;;;;;;;;;;16.73;74.17;95176.69;5158579;27;1008;-47
2022/07/08 00:19:19;;;;;;;;;;;;;;;16.85;74.03;95171.59;5158920;27;1031;-47
2022/07/08 00:21:49;;;;;;;;;;;;;;;16.89;73.45;95172.84;5140341;27;941;-47
2022/07/08 00:24:15;;;;;;;;;;;;;;;17.01;73.30;95178.50;5158743;27;1003;-47
2022/07/08 00:26:42;;;;;;;;;;;;;;;17.03;72.62;95175.63;5158484;27;1012;-47
2022/07/08 00:29:08;;;;;;;;;;;;;;;17.13;72.11;95176.06;5158548;27;957;-47
2022/07/08 00:31:34;;;;;;;;;;;;;;;17.10;72.44;95187.28;5158058;27;1910;-48
2022/07/08 00:34:00;;;;;;;;;;;;;;;16.82;73.85;95188.19;5158435;27;987;-47
2022/07/08 00:36:26;;;;;;;;;;;;;;;16.62;74.34;95174.53;5158321;27;1195;-47
2022/07/08 00:38:53;;;;;;;;;;;;;;;16.53;74.96;95173.84;5158561;27;1027;-47
2022/07/08 00:41:19;;;;;;;;;;;;;;;16.55;75.16;95170.97;5158221;27;1007;-47
2022/07/08 00:43:47;;;;;;;;;;;;;;;16.62;74.88;95168.28;5143228;27;1151;-47
2022/07/08 00:46:15;;;;;;;;;;;;;;;16.70;73.89;95165.44;5137216;27;1036;-47
2022/07/08 00:48:42;;;;;;;;;;;;;;;16.71;73.85;95164.41;5137430;27;1016;-48
2022/07/08 00:51:10;;;;;;;;;;;;;;;16.58;74.89;95163.31;5137268;27;1898;-47
2022/07/08 00:53:38;;;;;;;;;;;;;;;16.20;75.54;95173.59;5137409;27;1885;-47
2022/07/08 00:56:04;;;;;;;;;;;;;;;16.15;76.52;95179.59;5137261;27;969;-47
2022/07/08 00:58:34;;;;;;;;;;;;;;;16.26;75.99;95177.38;5137223;27;981;-48
2022/07/08 01:01:00;;;;;;;;;;;;;;;16.31;75.99;95174.94;5137329;27;965;-47
2022/07/08 01:03:27;;;;;;;;;;;;;;;16.07;76.45;95171.66;5137275;27;988;-47
2022/07/08 01:05:53;;;;;;;;;;;;;;;15.87;77.01;95168.75;5136953;27;1040;-48
2022/07/08 01:08:19;;;;;;;;;;;;;;;15.92;77.25;95168.19;5136789;27;1016;-47
2022/07/08 01:10:46;;;;;;;;;;;;;;;16.27;75.55;95161.00;5136999;27;1988;-47
2022/07/08 01:13:12;;;;;;;;;;;;;;;16.27;75.83;95161.00;5136658;27;929;-47
2022/07/08 01:15:38;;;;;;;;;;;;;;;16.17;75.32;95165.91;5136964;27;1025;-48
2022/07/08 01:18:04;;;;;;;;;;;;;;;16.12;76.41;95162.97;5136640;27;1020;-47
2022/07/08 01:20:31;;;;;;;;;;;;;;;15.95;76.68;95165.09;5137046;27;958;-47
2022/07/08 01:22:57;;;;;;;;;;;;;;;15.95;77.30;95167.78;5136614;27;1008;-48
2022/07/08 01:25:23;;;;;;;;;;;;;;;16.26;75.11;95162.03;5136729;27;1126;-47
2022/07/08 01:27:50;;;;;;;;;;;;;;;16.42;74.85;95160.91;5136523;27;1047;-47
2022/07/08 01:30:16;;;;;;;;;;;;;;;16.27;75.23;95165.56;5136822;27;1089;-47
2022/07/08 01:32:42;;;;;;;;;;;;;;;15.91;76.22;95166.50;5136273;27;1909;-47
2022/07/08 01:35:08;;;;;;;;;;;;;;;16.03;76.48;95154.19;5136436;27;1024;-47
2022/07/08 01:37:35;;;;;;;;;;;;;;;16.11;75.44;95159.44;5136472;27;953;-47
2022/07/08 01:40:01;;;;;;;;;;;;;;;15.99;76.41;95148.34;5136420;27;992;-47
2022/07/08 01:42:27;;;;;;;;;;;;;;;15.96;75.86;95148.72;5139926;27;1173;-47
2022/07/08 01:44:53;;;;;;;;;;;;;;;15.91;76.59;95159.25;5157412;27;1054;-47
2022/07/08 01:47:20;;;;;;;;;;;;;;;16.03;75.98;95159.59;5156762;27;1032;-47
2022/07/08 01:49:46;;;;;;;;;;;;;;;16.10;76.34;95148.84;5157167;27;1037;-47
2022/07/08 01:52:12;;;;;;;;;;;;;;;15.88;76.76;95154.28;5156633;27;1913;-48
2022/07/08 01:54:38;;;;;;;;;;;;;;;15.69;77.25;95158.41;5157055;27;956;-47
2022/07/08 01:57:13;;;;;;;;;;;;;;;15.75;77.26;95157.66;5156673;27;971;-48
2022/07/08 01:59:43;;;;;;;;;;;;;;;15.78;77.05;95161.84;5156893;27;1091;-48
2022/07/08 02:02:10;;;;;;;;;;;;;;;15.93;76.58;95156.38;5156729;27;1027;-47
2022/07/08 02:04:36;;;;;;;;;;;;;;;15.67;76.55;95157.78;5156694;27;955;-47
2022/07/08 02:07:02;;;;;;;;;;;;;;;15.40;78.49;95159.34;5156654;27;1027;-48
2022/07/08 02:09:28;;;;;;;;;;;;;;;15.58;77.73;95167.84;5156491;27;1016;-47
2022/07/08 02:14:39;;;;;;;;;;;;;;;15.92;76.55;95173.59;5156503;27;1126;-47
2022/07/08 02:17:05;;;;;;;;;;;;;;;15.83;77.67;95167.47;5156375;27;1079;-47
2022/07/08 02:19:31;;;;;;;;;;;;;;;15.79;77.72;95169.72;5156114;27;994;-47
2022/07/08 02:21:57;;;;;;;;;;;;;;;15.83;77.28;95164.78;5156203;27;987;-47
2022/07/08 02:24:23;;;;;;;;;;;;;;;15.85;77.20;95173.50;5155993;27;1027;-47
2022/07/08 02:26:49;;;;;;;;;;;;;;;15.72;77.51;95171.50;5156539;27;976;-47
2022/07/08 02:29:15;;;;;;;;;;;;;;;15.30;78.20;95177.69;5156186;27;956;-47
2022/07/08 02:31:42;;;;;;;;;;;;;;;15.17;78.43;95171.09;5155909;27;1933;-48
2022/07/08 02:34:08;;;;;;;;;;;;;;;15.26;78.70;95179.09;5156214;27;1144;-47
2022/07/08 02:36:34;;;;;;;;;;;;;;;15.43;78.42;95173.28;5156050;27;1099;-47
2022/07/08 02:39:00;;;;;;;;;;;;;;;15.70;76.96;95173.53;5155666;27;1075;-47
2022/07/08 02:41:26;;;;;;;;;;;;;;;15.74;77.01;95172.16;5156009;27;1019;-47
2022/07/08 02:43:52;;;;;;;;;;;;;;;15.52;77.90;95173.16;5140011;27;1149;-47
2022/07/08 02:46:18;;;;;;;;;;;;;;;15.22;78.01;95178.63;5135232;27;999;-47
2022/07/08 02:48:45;;;;;;;;;;;;;;;15.10;79.26;95172.06;5135029;27;977;-47
2022/07/08 02:51:11;;;;;;;;;;;;;;;15.26;78.91;95185.31;5134931;27;1885;-47
2022/07/08 02:53:37;;;;;;;;;;;;;;;15.23;78.56;95183.84;5134772;27;1078;-48
2022/07/08 02:56:03;;;;;;;;;;;;;;;15.06;78.41;95186.91;5134911;27;1012;-47
2022/07/08 02:58:29;;;;;;;;;;;;;;;15.08;78.46;95183.03;5134715;27;1064;-47
2022/07/08 03:00:55;;;;;;;;;;;;;;;15.22;78.47;95184.03;5135034;27;1043;-47
2022/07/08 03:03:21;;;;;;;;;;;;;;;15.21;78.57;95187.72;5134707;27;958;-47
2022/07/08 03:05:47;;;;;;;;;;;;;;;15.13;79.08;95185.16;5134687;27;1058;-47
2022/07/08 03:08:13;;;;;;;;;;;;;;;15.00;79.19;95183.94;5134483;27;1063;-48
2022/07/08 03:10:39;;;;;;;;;;;;;;;14.85;79.90;95183.13;5134925;27;1991;-47
2022/07/08 03:13:05;;;;;;;;;;;;;;;14.99;79.53;95190.38;5134715;27;1198;-47
2022/07/08 03:15:32;;;;;;;;;;;;;;;15.13;78.27;95188.66;5134690;27;980;-47
2022/07/08 03:17:58;;;;;;;;;;;;;;;15.16;78.52;95195.56;5134746;27;1091;-47
2022/07/08 03:20:24;;;;;;;;;;;;;;;14.96;79.05;95192.59;5134396;27;1031;-47
2022/07/08 03:22:50;;;;;;;;;;;;;;;14.78;80.01;95193.00;5134537;27;956;-47
2022/07/08 03:25:16;;;;;;;;;;;;;;;14.84;79.81;95187.69;5134229;27;1164;-47
2022/07/08 03:27:42;;;;;;;;;;;;;;;14.78;80.27;95193.00;5134497;27;1831;-47
2022/07/08 03:30:08;;;;;;;;;;;;;;;14.82;80.21;95191.59;5134232;27;1118;-47
2022/07/08 03:32:34;;;;;;;;;;;;;;;14.95;79.82;95197.16;5133429;27;1971;-47
2022/07/08 03:35:00;;;;;;;;;;;;;;;14.93;80.16;95196.50;5134072;27;962;-47
2022/07/08 03:37:26;;;;;;;;;;;;;;;15.13;78.95;95196.75;5134346;27;1024;-47
2022/07/08 03:39:53;;;;;;;;;;;;;;;15.27;78.59;95187.00;5134473;28;1029;-47
2022/07/08 03:42:19;;;;;;;;;;;;;;;15.33;78.49;95196.19;5136799;27;1947;-47
2022/07/08 03:44:45;;;;;;;;;;;;;;;15.28;78.67;95193.22;5155064;27;1032;-47
2022/07/08 03:47:12;;;;;;;;;;;;;;;15.20;78.79;95202.22;5155070;27;1003;-47
2022/07/08 03:49:38;;;;;;;;;;;;;;;15.39;78.78;95196.22;5154960;27;977;-47
2022/07/08 03:52:04;;;;;;;;;;;;;;;15.57;78.81;95195.78;5154730;27;1898;-47
2022/07/08 03:54:30;;;;;;;;;;;;;;;15.59;78.88;95201.84;5155043;27;1064;-47
2022/07/08 03:56:57;;;;;;;;;;;;;;;15.53;79.65;95201.78;5155010;27;1061;-47
2022/07/08 03:59:23;;;;;;;;;;;;;;;15.55;79.65;95199.72;5154742;27;1035;-47
2022/07/08 04:01:49;;;;;;;;;;;;;;;15.79;79.33;95198.56;5154956;27;999;-48
2022/07/08 04:04:15;;;;;;;;;;;;;;;15.93;79.14;95202.22;5154409;27;1039;-47
2022/07/08 04:06:41;;;;;;;;;;;;;;;16.08;77.60;95202.13;5154890;27;1030;-47
2022/07/08 04:09:07;;;;;;;;;;;;;;;16.31;77.73;95215.41;5154752;27;1022;-47
2022/07/08 04:11:33;;;;;;;;;;;;;;;16.59;77.13;95208.13;5154788;27;1910;-47
2022/07/08 04:13:59;;;;;;;;;;;;;;;16.91;75.96;95219.38;5155102;27;1020;-47
2022/07/08 04:16:25;;;;;;;;;;;;;;;17.07;74.79;95206.59;5154713;27;1035;-48
2022/07/08 04:18:51;;;;;;;;;;;;;;;17.17;75.50;95213.31;5154796;27;983;-47
2022/07/08 04:21:17;;;;;;;;;;;;;;;17.33;73.30;95211.28;5154375;27;1039;-47
2022/07/08 04:23:43;;;;;;;;;;;;;;;17.43;73.64;95209.03;5154528;27;984;-47
2022/07/08 04:26:09;;;;;;;;;;;;;;;17.50;73.54;95211.78;5154501;27;1015;-48
2022/07/08 04:28:35;;;;;;;;;;;;;;;17.77;72.12;95209.97;5154579;27;1028;-48
2022/07/08 04:31:01;;;;;;;;;;;;;;;17.92;71.20;95202.53;5154121;27;1909;-48
2022/07/08 04:33:27;;;;;;;;;;;;;;;18.15;69.28;95209.44;5154631;27;1101;-47
2022/07/08 04:35:53;;;;;;;;;;;;;;;18.19;70.25;95204.44;5153950;27;1032;-48
2022/07/08 04:38:19;;;;;;;;;;;;;;;18.28;69.60;95206.75;5154338;27;961;-47
2022/07/08 04:40:45;;;;;;;;;;;;;;;18.38;69.10;95194.66;5154351;27;957;-47
2022/07/08 04:43:12;;;;;;;;;;;;;;;18.50;69.39;95203.84;5144846;27;1231;-47
2022/07/08 04:45:38;;;;;;;;;;;;;;;18.65;67.80;95204.44;5137244;27;1098;-48
2022/07/08 04:48:05;;;;;;;;;;;;;;;18.70;66.56;95204.66;5137364;27;1040;-47
2022/07/08 04:50:31;;;;;;;;;;;;;;;18.69;67.97;95205.69;5137162;27;914;-47
2022/07/08 04:52:57;;;;;;;;;;;;;;;18.92;67.02;95210.69;5137247;27;2013;-47
2022/07/08 04:55:32;;;;;;;;;;;;;;;18.93;65.67;95211.50;5137223;27;1048;-47
2022/07/08 04:57:59;;;;;;;;;;;;;;;19.03;66.29;95198.38;5137205;27;1182;-47
2022/07/08 05:00:26;;;;;;;;;;;;;;;19.09;64.82;95205.63;5137059;27;1032;-47
2022/07/08 05:02:52;;;;;;;;;;;;;;;19.22;66.09;95202.06;5137167;27;996;-47
2022/07/08 05:05:18;;;;;;;;;;;;;;;19.29;65.12;95205.59;5136548;27;968;-47
2022/07/08 05:07:45;;;;;;;;;;;;;;;19.33;65.08;95207.84;5137364;27;977;-47
2022/07/08 05:10:11;;;;;;;;;;;;;;;19.35;64.78;95203.91;5137002;27;1139;-47
2022/07/08 05:12:37;;;;;;;;;;;;;;;19.50;65.20;95212.59;5136817;27;1953;-47
2022/07/08 05:15:03;;;;;;;;;;;;;;;19.59;65.94;95206.91;5136800;27;1024;-47
2022/07/08 05:17:29;;;;;;;;;;;;;;;19.68;65.55;95213.75;5136639;27;1013;-47
2022/07/08 05:19:55;;;;;;;;;;;;;;;19.83;64.94;95214.34;5136790;27;996;-48
2022/07/08 05:22:21;;;;;;;;;;;;;;;20.08;64.75;95213.56;5136760;27;1047;-47
2022/07/08 05:24:47;;;;;;;;;;;;;;;20.46;63.44;95216.19;5136877;27;1000;-47
2022/07/08 05:27:13;;;;;;;;;;;;;;;21.27;61.02;95213.59;5136380;27;1099;-48
2022/07/08 05:29:39;;;;;;;;;;;;;;;22.08;58.33;95207.97;5136558;27;1236;-47
2022/07/08 05:32:06;;;;;;;;;;;;;;;22.47;57.33;95211.19;5136143;27;1985;-48
2022/07/08 05:34:32;;;;;;;;;;;;;;;22.06;58.63;95215.53;5136267;27;965;-47
2022/07/08 05:36:58;;;;;;;;;;;;;;;21.68;59.09;95213.97;5136475;27;1027;-47
2022/07/08 05:39:24;;;;;;;;;;;;;;;21.45;60.28;95218.22;5136578;27;1038;-48
2022/07/08 05:41:51;;;;;;;;;;;;;;;21.05;60.81;95210.47;5136233;27;1070;-48
2022/07/08 05:44:17;;;;;;;;;;;;;;;20.81;61.13;95207.59;5155637;27;1212;-48
2022/07/08 05:46:43;;;;;;;;;;;;;;;20.77;63.29;95206.38;5156892;27;1040;-48
2022/07/08 05:49:09;;;;;;;;;;;;;;;20.92;63.00;95207.88;5156868;27;936;-48
2022/07/08 05:51:35;;;;;;;;;;;;;;;20.99;62.68;95211.38;5156647;27;1987;-47
2022/07/08 05:54:01;;;;;;;;;;;;;;;21.17;62.30;95205.97;5156934;27;1014;-47
2022/07/08 05:56:27;;;;;;;;;;;;;;;21.33;62.29;95195.53;5155776;27;1032;-48
2022/07/08 05:58:54;;;;;;;;;;;;;;;21.44;62.43;95202.97;5156914;27;957;-47
2022/07/08 06:01:20;;;;;;;;;;;;;;;21.41;62.04;95197.94;5138090;27;952;-47
2022/07/08 06:03:46;;;;;;;;;;;;;;;21.33;60.25;95195.53;5157073;27;1026;-47
2022/07/08 06:06:12;;;;;;;;;;;;;;;21.44;61.94;95194.81;5156171;27;1000;-47
2022/07/08 06:08:38;;;;;;;;;;;;;;;21.66;60.07;95205.19;5156788;27;1003;-47
2022/07/08 06:11:04;;;;;;;;;;;;;;;21.76;61.17;95206.31;5156536;27;1897;-48
2022/07/08 06:13:30;;;;;;;;;;;;;;;21.74;61.56;95203.00;5156471;27;1030;-48
2022/07/08 06:15:56;;;;;;;;;;;;;;;21.80;60.75;95195.81;5156381;27;1028;-47
2022/07/08 06:18:22;;;;;;;;;;;;;;;21.93;59.55;95187.47;5155855;27;1016;-47
2022/07/08 06:20:48;;;;;;;;;;;;;;;21.95;60.67;95187.22;5156624;27;1008;-47
2022/07/08 06:23:14;;;;;;;;;;;;;;;22.07;61.80;95190.81;5156006;27;1082;-47
2022/07/08 06:25:40;;;;;;;;;;;;;;;22.16;59.25;95185.88;5156404;27;944;-48
2022/07/08 06:28:06;;;;;;;;;;;;;;;22.12;58.94;95187.38;5155899;27;1293;-47
2022/07/08 06:30:32;;;;;;;;;;;;;;;22.35;59.65;95179.31;5156103;27;1214;-48
2022/07/08 06:32:59;;;;;;;;;;;;;;;22.50;58.09;95180.75;5155925;27;1976;-48
2022/07/08 06:35:26;;;;;;;;;;;;;;;22.46;58.52;95171.38;5155846;27;980;-48
2022/07/08 06:37:53;;;;;;;;;;;;;;;22.38;58.48;95169.84;5155782;27;1127;-48
2022/07/08 06:40:21;;;;;;;;;;;;;;;22.63;58.29;95166.88;5155956;27;1028;-48
2022/07/08 06:42:50;;;;;;;;;;;;;;;22.84;59.12;95162.78;5130796;27;1164;-48
2022/07/08 06:45:16;;;;;;;;;;;;;;;23.14;58.31;95159.91;5135126;27;1035;-48
2022/07/08 06:47:42;;;;;;;;;;;;;;;23.29;58.22;95151.22;5134949;27;957;-48
2022/07/08 06:50:08;;;;;;;;;;;;;;;23.34;57.86;95153.25;5134916;27;1103;-48
2022/07/08 06:52:35;;;;;;;;;;;;;;;23.52;56.93;95147.63;5134967;27;1914;-48
2022/07/08 06:55:01;;;;;;;;;;;;;;;23.46;55.98;95140.38;5134844;27;1087;-48
2022/07/08 06:57:27;;;;;;;;;;;;;;;23.52;57.45;95141.31;5134906;27;1045;-48
2022/07/08 06:59:54;;;;;;;;;;;;;;;23.75;57.23;95151.31;5134953;27;968;-48
2022/07/08 07:02:20;;;;;;;;;;;;;;;23.61;56.90;95142.59;5134449;27;1028;-48
2022/07/08 07:04:47;;;;;;;;;;;;;;;23.66;57.49;95148.16;5134828;27;1050;-48
2022/07/08 07:07:13;;;;;;;;;;;;;;;23.76;56.50;95142.06;5134631;27;1048;-48
2022/07/08 07:09:39;;;;;;;;;;;;;;;23.74;56.68;95145.03;5134855;27;997;-48
2022/07/08 07:12:06;;;;;;;;;;;;;;;23.94;56.19;95138.31;5134344;27;1988;-48
2022/07/08 07:14:32;;;;;;;;;;;;;;;24.07;54.69;95148.94;5134468;27;1851;-48
2022/07/08 07:16:59;;;;;;;;;;;;;;;24.20;53.40;95156.00;5134549;27;996;-48
2022/07/08 07:19:25;;;;;;;;;;;;;;;24.30;54.20;95153.44;5134585;27;1056;-48
2022/07/08 07:21:51;;;;;;;;;;;;;;;24.51;53.94;95153.75;5134781;27;949;-48
2022/07/08 07:24:17;;;;;;;;;;;;;;;24.62;54.25;95157.53;5134425;27;1040;-48
2022/07/08 07:26:43;;;;;;;;;;;;;;;24.77;53.63;95157.75;5134440;27;1025;-48
2022/07/08 07:29:09;;;;;;;;;;;;;;;24.81;53.98;95155.38;5134300;27;1043;-48
2022/07/08 07:31:36;;;;;;;;;;;;;;;25.00;54.48;95145.78;5134222;27;2119;-48
2022/07/08 07:34:02;;;;;;;;;;;;;;;25.11;54.99;95146.78;5134223;27;952;-48
2022/07/08 07:36:29;;;;;;;;;;;;;;;25.07;53.80;95142.88;5134598;27;953;-48
2022/07/08 07:38:55;;;;;;;;;;;;;;;25.17;54.79;95137.53;5134325;27;965;-48
2022/07/08 07:41:21;;;;;;;;;;;;;;;25.42;53.94;95149.94;5134422;27;956;-48
2022/07/08 07:43:47;;;;;;;;;;;;;;;25.24;51.83;95153.81;5149150;27;1073;-48
2022/07/08 07:46:14;;;;;;;;;;;;;;;25.40;54.66;95139.25;5154900;27;1012;-48
2022/07/08 07:48:40;;;;;;;;;;;;;;;25.62;52.42;95143.91;5154747;27;1008;-48
2022/07/08 07:51:06;;;;;;;;;;;;;;;25.81;52.36;95141.63;5155042;27;1913;-48
2022/07/08 07:53:32;;;;;;;;;;;;;;;25.83;51.63;95145.75;5154745;27;1095;-48
2022/07/08 07:55:58;;;;;;;;;;;;;;;25.94;50.79;95143.19;5155060;27;1037;-48
2022/07/08 07:58:24;;;;;;;;;;;;;;;26.08;50.91;95134.28;5155119;27;1179;-48
2022/07/08 08:00:51;;;;;;;;;;;;;;;26.15;49.94;95128.59;5154848;27;972;-48
2022/07/08 08:03:17;;;;;;;;;;;;;;;26.09;51.07;95127.72;5154604;27;1067;-48
2022/07/08 08:05:43;;;;;;;;;;;;;;;26.13;51.84;95117.06;5154678;27;1039;-48
2022/07/08 08:08:10;;;;;;;;;;;;;;;26.35;51.40;95114.25;5154702;27;956;-48
2022/07/08 08:10:36;;;;;;;;;;;;;;;26.39;50.25;95115.38;5154774;27;1040;-48
2022/07/08 08:13:02;;;;;;;;;;;;;;;26.50;49.94;95113.53;5154575;27;1914;-48
2022/07/08 08:15:32;;;;;;;;;;;;;;;26.54;50.47;95109.19;5154593;27;1040;-48
2022/07/08 08:17:59;;;;;;;;;;;;;;;26.62;48.55;95100.50;5155682;27;956;-48
2022/07/08 08:20:26;;;;;;;;;;;;;;;26.61;51.00;95098.03;5158860;27;951;-48
2022/07/08 08:22:52;;;;;;;;;;;;;;;26.55;50.12;95088.91;5158898;27;1051;-49
2022/07/08 08:25:19;;;;;;;;;;;;;;;26.68;48.98;95093.97;5158424;27;1028;-48
2022/07/08 08:27:45;;;;;;;;;;;;;;;26.72;47.58;95087.97;5159144;27;1022;-48
2022/07/08 08:30:11;;;;;;;;;;;;;;;26.79;47.59;95088.56;5158349;27;1023;-55
2022/07/08 08:32:38;;;;;;;;;;;;;;;26.83;49.50;95090.50;5158371;27;1922;-48
2022/07/08 08:35:04;;;;;;;;;;;;;;;26.87;47.46;95079.81;5158287;27;1014;-48
2022/07/08 08:37:31;;;;;;;;;;;;;;;26.83;50.06;95082.28;5158577;27;1023;-48
2022/07/08 08:40:08;;;;;;;;;;;;;;;26.88;49.99;95078.72;5158370;27;1054;-49
2022/07/08 08:42:35;;;;;;;;;;;;;;;26.88;48.17;95079.56;5153617;27;1168;-48
2022/07/08 08:45:03;;;;;;;;;;;;;;;26.76;50.52;95083.59;5137322;27;1021;-48
2022/07/08 08:47:30;;;;;;;;;;;;;;;26.79;46.91;95080.34;5137752;27;1011;-48
2022/07/08 08:49:57;;;;;;;;;;;;;;;26.90;48.84;95084.78;5137441;27;961;-48
2022/07/08 08:52:24;;;;;;;;;;;;;;;26.89;46.59;95080.38;5137306;27;1913;-48
2022/07/08 08:54:51;;;;;;;;;;;;;;;26.92;48.15;95074.38;5137193;27;1032;-48
2022/07/08 08:57:18;;;;;;;;;;;;;;;27.05;45.26;95065.66;5137278;27;1007;-48
2022/07/08 08:59:47;;;;;;;;;;;;;;;27.16;45.06;95058.28;5137095;27;1044;-48
2022/07/08 09:02:13;;;;;;;;;;;;;;;27.12;43.52;95059.09;5137328;27;1033;-48
2022/07/08 09:04:40;;;;;;;;;;;;;;;27.14;44.47;95059.66;5136978;27;1040;-48
2022/07/08 09:07:06;;;;;;;;;;;;;;;27.20;45.09;95061.31;5137025;27;1036;-48
2022/07/08 09:09:32;;;;;;;;;;;;;;;27.20;46.07;95055.84;5137081;27;1032;-48
2022/07/08 09:12:15;;;;;;;;;;;;;;;27.22;46.75;95062.72;5136938;27;1913;-52
2022/07/08 09:14:48;;;;;;;;;;;;;;;27.31;45.12;95046.59;5136877;27;913;-48
2022/07/08 09:17:16;;;;;;;;;;;;;;;27.33;45.66;95058.09;5136896;27;1095;-48
2022/07/08 09:19:42;;;;;;;;;;;;;;;27.50;46.10;95057.06;5136791;27;945;-48
2022/07/08 09:22:09;;;;;;;;;;;;;;;27.49;45.56;95049.91;5136898;27;1036;-48
2022/07/08 09:24:35;;;;;;;;;;;;;;;27.49;45.77;95052.66;5136602;27;1078;-48
2022/07/08 09:27:03;;;;;;;;;;;;;;;27.44;45.20;95050.75;5137069;27;949;-48
2022/07/08 09:29:29;;;;;;;;;;;;;;;27.35;45.26;95061.41;5135847;27;971;-48
2022/07/08 09:32:08;;;;;;;;;;;;;;;27.51;44.16;95061.47;5136220;27;1914;-48
2022/07/08 09:34:35;;;;;;;;;;;;;;;27.38;41.69;95063.63;5136369;27;969;-48
2022/07/08 09:37:09;;;;;;;;;;;;;;;27.17;41.44;95051.72;5136578;27;991;-48
2022/07/08 09:39:35;;;;;;;;;;;;;;;27.36;44.21;95054.03;5136453;27;1091;-48
2022/07/08 09:42:01;;;;;;;;;;;;;;;27.37;41.88;95050.97;5136618;27;1020;-48
2022/07/08 09:44:27;;;;;;;;;;;;;;;27.36;41.50;95038.38;5136551;27;1028;-48
2022/07/08 09:46:53;;;;;;;;;;;;;;;27.23;40.66;95033.34;5136480;27;1035;-48
2022/07/08 09:49:26;;;;;;;;;;;;;;;27.18;41.21;95028.66;5136342;27;984;-48
2022/07/08 09:51:52;;;;;;;;;;;;;;;27.28;41.55;95025.19;5136086;27;1988;-48
2022/07/08 09:54:18;;;;;;;;;;;;;;;27.39;42.21;95021.34;5136304;27;1052;-48
2022/07/08 09:56:57;;;;;;;;;;;;;;;27.45;42.25;95009.31;5135934;27;1170;-49
2022/07/08 09:59:23;;;;;;;;;;;;;;;27.59;42.97;95011.53;5136198;27;995;-48
2022/07/08 10:01:51;;;;;;;;;;;;;;;27.65;41.00;95002.19;5135924;27;1016;-48
2022/07/08 10:04:18;;;;;;;;;;;;;;;27.82;41.30;94997.25;5135754;27;969;-48
2022/07/08 10:06:45;;;;;;;;;;;;;;;27.92;42.51;94995.66;5136091;27;1036;-48
2022/07/08 10:09:11;;;;;;;;;;;;;;;27.83;41.32;94996.19;5135822;27;1084;-48
2022/07/08 10:11:38;;;;;;;;;;;;;;;27.96;40.15;94999.50;5135669;27;1917;-48
2022/07/08 10:14:08;;;;;;;;;;;;;;;27.98;39.06;94992.66;5135964;27;1011;-48
2022/07/08 10:16:34;;;;;;;;;;;;;;;27.99;40.77;94997.03;5135732;27;1072;-48
2022/07/08 10:19:02;;;;;;;;;;;;;;;28.06;41.37;94994.00;5135652;27;995;-49
2022/07/08 10:21:28;;;;;;;;;;;;;;;28.04;40.55;94998.97;5135796;27;961;-48
2022/07/08 10:23:55;;;;;;;;;;;;;;;28.12;40.08;94990.16;5135866;27;1028;-48
2022/07/08 10:26:23;;;;;;;;;;;;;;;28.17;41.05;94983.81;5135352;27;1071;-48
2022/07/08 10:29:05;;;;;;;;;;;;;;;28.27;39.33;94981.06;5135589;27;1066;-48
2022/07/08 10:31:40;;;;;;;;;;;;;;;28.20;39.42;94978.59;5135061;27;1913;-48
2022/07/08 10:34:07;;;;;;;;;;;;;;;28.02;39.91;94974.50;5135224;27;1013;-48
2022/07/08 10:36:45;;;;;;;;;;;;;;;27.90;40.06;94965.69;5135220;27;1064;-48
2022/07/08 10:39:12;;;;;;;;;;;;;;;28.09;40.46;94971.47;5135291;27;1091;-48
2022/07/08 10:41:38;;;;;;;;;;;;;;;28.04;38.79;94961.31;5134860;27;1027;-48
2022/07/08 10:44:05;;;;;;;;;;;;;;;28.10;40.36;94967.63;5153193;27;1220;-49
2022/07/08 10:46:31;;;;;;;;;;;;;;;28.16;40.42;94957.47;5156134;27;976;-49
2022/07/08 10:48:58;;;;;;;;;;;;;;;28.15;39.37;94958.53;5156122;27;1067;-48
2022/07/08 10:51:24;;;;;;;;;;;;;;;28.17;39.10;94954.44;5155698;27;1913;-48
2022/07/08 10:53:50;;;;;;;;;;;;;;;28.22;38.26;94957.16;5155959;27;1018;-48
2022/07/08 10:56:35;;;;;;;;;;;;;;;28.34;39.76;94947.78;5155496;27;1071;-48
2022/07/08 10:59:35;;;;;;;;;;;;;;;28.36;40.93;94954.69;5155876;27;952;-48
2022/07/08 11:02:05;;;;;;;;;;;;;;;28.33;40.70;94951.66;5099811;27;1288;-48
2022/07/08 11:04:34;;;;;;;;;;;;;;;28.33;41.51;94943.41;5155381;27;1103;-48
2022/07/08 11:07:16;;;;;;;;;;;;;;;28.27;40.08;94939.84;5155300;27;995;-48
2022/07/08 11:09:43;;;;;;;;;;;;;;;28.21;41.80;94939.03;5155787;27;980;-49
2022/07/08 11:12:16;;;;;;;;;;;;;;;28.23;41.56;94942.31;5136864;27;1905;-48
2022/07/08 11:14:43;;;;;;;;;;;;;;;28.29;42.59;94937.63;5155588;27;967;-48
2022/07/08 11:17:18;;;;;;;;;;;;;;;28.30;40.21;94936.53;5155269;27;952;-48
2022/07/08 11:19:45;;;;;;;;;;;;;;;28.20;40.45;94931.06;5155355;27;995;-47
2022/07/08 11:22:12;;;;;;;;;;;;;;;28.27;41.36;94933.50;5136993;27;1031;-48
2022/07/08 11:24:39;;;;;;;;;;;;;;;28.24;41.45;94924.72;5155529;27;1071;-48
2022/07/08 11:27:05;;;;;;;;;;;;;;;28.31;40.71;94915.38;5155156;27;1082;-48
2022/07/08 11:29:32;;;;;;;;;;;;;;;28.41;41.05;94910.66;5155252;27;1107;-48
2022/07/08 11:31:58;;;;;;;;;;;;;;;28.53;40.98;94902.16;5154711;27;1949;-48
2022/07/08 11:34:24;;;;;;;;;;;;;;;28.51;40.21;94901.53;5154882;27;1031;-48
2022/07/08 11:36:53;;;;;;;;;;;;;;;28.56;40.35;94904.31;5155142;27;1035;-48
2022/07/08 11:39:19;;;;;;;;;;;;;;;28.57;39.50;94900.47;5155185;27;956;-48
2022/07/08 11:41:45;;;;;;;;;;;;;;;28.49;38.59;94887.25;5155118;27;1046;-48
2022/07/08 11:44:12;;;;;;;;;;;;;;;28.37;38.87;94886.75;5136331;27;1208;-48
2022/07/08 11:46:51;;;;;;;;;;;;;;;28.46;38.40;94887.00;5134264;27;1045;-48
2022/07/08 11:49:17;;;;;;;;;;;;;;;28.54;40.24;94879.03;5134637;28;1127;-48
2022/07/08 11:52:04;;;;;;;;;;;;;;;28.45;37.46;94875.19;5134237;28;1913;-48
2022/07/08 11:54:30;;;;;;;;;;;;;;;28.48;38.47;94865.56;5137574;27;953;-48
2022/07/08 11:56:59;;;;;;;;;;;;;;;28.44;36.57;94868.06;5138460;27;980;-48
2022/07/08 11:59:27;;;;;;;;;;;;;;;28.49;37.94;94865.25;5138390;27;1015;-50
2022/07/08 12:01:54;;;;;;;;;;;;;;;28.64;38.33;94852.59;5138614;27;1009;-49
2022/07/08 12:04:20;;;;;;;;;;;;;;;28.65;38.86;94843.22;5138196;27;972;-48
2022/07/08 12:06:50;;;;;;;;;;;;;;;28.71;37.26;94848.44;5138366;27;1075;-49
2022/07/08 12:09:17;;;;;;;;;;;;;;;28.58;38.36;94833.34;5138188;27;1016;-48
2022/07/08 12:11:44;;;;;;;;;;;;;;;28.52;38.77;94834.50;5138246;27;1985;-49
2022/07/08 12:14:10;;;;;;;;;;;;;;;28.40;39.54;94836.69;5138148;27;1061;-49
2022/07/08 12:16:44;;;;;;;;;;;;;;;28.14;39.38;94839.56;5138398;27;924;-49
2022/07/08 12:19:28;;;;;;;;;;;;;;;27.78;41.07;94831.38;5138017;27;1023;-49
2022/07/08 12:21:55;;;;;;;;;;;;;;;27.50;41.67;94831.94;5138110;27;956;-49
2022/07/08 12:24:25;;;;;;;;;;;;;;;27.28;41.43;94838.56;5137729;27;1064;-49
2022/07/08 12:26:56;;;;;;;;;;;;;;;27.30;43.07;94835.50;5119965;27;1017;-49
2022/07/08 12:29:22;;;;;;;;;;;;;;;27.49;42.32;94838.53;5137675;27;1991;-48
2022/07/08 12:31:48;;;;;;;;;;;;;;;27.59;42.27;94846.78;5137754;27;1981;-49
2022/07/08 12:34:16;;;;;;;;;;;;;;;27.67;41.94;94843.47;5137466;27;1031;-48
2022/07/08 12:36:42;;;;;;;;;;;;;;;27.68;42.14;94838.78;5137783;27;1870;-49
2022/07/08 12:39:12;;;;;;;;;;;;;;;27.67;41.24;94839.91;5137455;27;975;-48
2022/07/08 12:41:38;;;;;;;;;;;;;;;27.63;41.38;94843.19;5137859;27;984;-49
2022/07/08 12:44:23;;;;;;;;;;;;;;;27.63;41.74;94823.97;5154967;27;1168;-48
2022/07/08 12:46:49;;;;;;;;;;;;;;;27.69;42.12;94838.50;5158303;27;1095;-50
2022/07/08 12:49:22;;;;;;;;;;;;;;;27.63;41.25;94828.63;5158160;27;1039;-48
2022/07/08 12:51:48;;;;;;;;;;;;;;;27.67;42.66;94840.72;5158060;27;1906;-48
2022/07/08 12:54:15;;;;;;;;;;;;;;;27.61;42.84;94828.09;5157904;27;1087;-49
2022/07/08 12:56:41;;;;;;;;;;;;;;;27.54;42.27;94833.03;5158275;27;1024;-49
2022/07/08 12:59:07;;;;;;;;;;;;;;;27.51;42.96;94833.56;5157792;27;996;-48
2022/07/08 13:01:35;;;;;;;;;;;;;;;27.41;43.76;94818.78;5158019;27;1844;-49
2022/07/08 13:04:01;;;;;;;;;;;;;;;27.40;42.56;94822.63;5157207;27;1847;-49